New Philadelphia, OH (44663)

1:03 PM EST on December 03, 2016 (GMT -0500)
Steele Hill | | Change Station

Elev 942 ft 40.48 °N, 81.48 °W | Updated 4 seconds ago

Overcast
Overcast
37.4 °F
Feels Like 37 °F
N
3.0
Wind Variable Wind from WSW
Gusts 9.0 mph

Today
High -- | Low -- °F
--% Chance of Precip.
Yesterday
High -- | Low -- °F
Precip. -- in
Pressure 30.32 in
Visibility 10.0 miles
Clouds Few 2300 ft
Overcast 2900 ft
Windchill 37 °F
Dew Point 31 °F
Humidity 78%
Rainfall 0.00 in
Snow Depth Not available.
7:32 AM 4:59 PM
Waxing Crescent, 16% visible
METAR KPHD 031753Z AUTO 22005KT 10SM FEW023 OVC029 03/M02 A3030 RMK AO2 SLP268 T00281017 10028 20011 58014
Pressure 30.32 in
Visibility 10.0 miles
Clouds Few 2300 ft
Overcast 2900 ft
Windchill 37 °F
Dew Point 31 °F
Humidity 78%
Rainfall 0.00 in
Snow Depth Not available.
7:32 AM 4:59 PM
Waxing Crescent, 16% visible
METAR KPHD 031753Z AUTO 22005KT 10SM FEW023 OVC029 03/M02 A3030 RMK AO2 SLP268 T00281017 10028 20011 58014

10-Day Weather Forecast

Almanac

Astronomy

Dec. 03, 2016 Rise Set
Actual Time
Civil Twilight
Nautical Twilight
Astronomical Twilight
Moon
Length of Visible Light
Length of Day
Tomorrow will be .
, % of the Moon is Illuminated

Today's Extremes

State Highs State Lows

Community

WunderPhotos

Upload Photos

1,955,455 photos uploaded!

WunderBlog® & News

Nearby

Air Quality

  Air Quality AQ Index Pollutant
Not available.

Snow Depth

Station Depth Elevation

Earthquake Activity

City Distance Mag. Time & Date
Minimum magnitude displayed is 2.5.

Coastal Water Temperatures

Place Temperature

Stations

Nearby Weather Stations

Station Location Temp. Windchill Dew Point Humidity Wind Precip. Elev Updated Type
                   

Watches & Warnings

There are currently no watches in effect.